sensor_id;sensor_type;location;lat;lon;timestamp;P1;durP1;ratioP1;P2;durP2;ratioP2
41572;SDS011;27286;47.870;19.006;2022-12-18T00:00:46;48.88;;;21.63;;
41572;SDS011;27286;47.870;19.006;2022-12-18T00:03:12;38.75;;;16.63;;
41572;SDS011;27286;47.870;19.006;2022-12-18T00:05:45;42.03;;;18.63;;
41572;SDS011;27286;47.870;19.006;2022-12-18T00:08:15;45.75;;;20.52;;
41572;SDS011;27286;47.870;19.006;2022-12-18T00:10:41;46.65;;;19.60;;
41572;SDS011;27286;47.870;19.006;2022-12-18T00:13:08;38.97;;;18.55;;
41572;SDS011;27286;47.870;19.006;2022-12-18T00:15:37;39.63;;;18.42;;
41572;SDS011;27286;47.870;19.006;2022-12-18T00:18:04;35.80;;;16.98;;
41572;SDS011;27286;47.870;19.006;2022-12-18T00:20:29;45.50;;;22.08;;
41572;SDS011;27286;47.870;19.006;2022-12-18T00:22:55;57.47;;;24.10;;
41572;SDS011;27286;47.870;19.006;2022-12-18T00:25:20;44.78;;;20.58;;
41572;SDS011;27286;47.870;19.006;2022-12-18T00:27:46;47.20;;;20.75;;
41572;SDS011;27286;47.870;19.006;2022-12-18T00:30:12;42.47;;;21.35;;
41572;SDS011;27286;47.870;19.006;2022-12-18T00:32:38;43.35;;;21.92;;
41572;SDS011;27286;47.870;19.006;2022-12-18T00:35:04;46.67;;;22.15;;
41572;SDS011;27286;47.870;19.006;2022-12-18T00:37:30;49.95;;;21.98;;
41572;SDS011;27286;47.870;19.006;2022-12-18T00:39:56;39.50;;;17.45;;
41572;SDS011;27286;47.870;19.006;2022-12-18T00:42:21;45.78;;;18.95;;
41572;SDS011;27286;47.870;19.006;2022-12-18T00:45:05;46.88;;;21.40;;
41572;SDS011;27286;47.870;19.006;2022-12-18T00:47:31;47.55;;;21.52;;
41572;SDS011;27286;47.870;19.006;2022-12-18T00:49:56;50.28;;;23.15;;
41572;SDS011;27286;47.870;19.006;2022-12-18T00:52:21;49.45;;;21.85;;
41572;SDS011;27286;47.870;19.006;2022-12-18T00:54:47;51.97;;;22.52;;
41572;SDS011;27286;47.870;19.006;2022-12-18T00:57:12;48.00;;;20.10;;
41572;SDS011;27286;47.870;19.006;2022-12-18T00:59:38;46.97;;;21.33;;
41572;SDS011;27286;47.870;19.006;2022-12-18T01:02:03;53.78;;;21.23;;
41572;SDS011;27286;47.870;19.006;2022-12-18T01:04:30;44.50;;;20.75;;
41572;SDS011;27286;47.870;19.006;2022-12-18T01:06:56;44.30;;;19.38;;
41572;SDS011;27286;47.870;19.006;2022-12-18T01:09:22;44.15;;;20.35;;
41572;SDS011;27286;47.870;19.006;2022-12-18T01:11:47;46.42;;;22.02;;
41572;SDS011;27286;47.870;19.006;2022-12-18T01:14:12;46.42;;;20.75;;
41572;SDS011;27286;47.870;19.006;2022-12-18T01:16:38;43.58;;;21.45;;
41572;SDS011;27286;47.870;19.006;2022-12-18T01:19:03;42.35;;;19.27;;
41572;SDS011;27286;47.870;19.006;2022-12-18T01:21:29;34.10;;;16.70;;
41572;SDS011;27286;47.870;19.006;2022-12-18T01:23:55;41.30;;;20.90;;
41572;SDS011;27286;47.870;19.006;2022-12-18T01:26:21;41.38;;;19.58;;
41572;SDS011;27286;47.870;19.006;2022-12-18T01:28:47;43.35;;;21.10;;
41572;SDS011;27286;47.870;19.006;2022-12-18T01:31:20;47.20;;;21.52;;
41572;SDS011;27286;47.870;19.006;2022-12-18T01:33:47;43.85;;;21.42;;
41572;SDS011;27286;47.870;19.006;2022-12-18T01:36:14;45.90;;;19.52;;
41572;SDS011;27286;47.870;19.006;2022-12-18T01:38:47;51.78;;;24.20;;
41572;SDS011;27286;47.870;19.006;2022-12-18T01:41:13;46.65;;;22.40;;
41572;SDS011;27286;47.870;19.006;2022-12-18T01:43:58;44.28;;;20.27;;
41572;SDS011;27286;47.870;19.006;2022-12-18T01:46:24;43.58;;;19.30;;
41572;SDS011;27286;47.870;19.006;2022-12-18T01:48:52;47.63;;;21.20;;
41572;SDS011;27286;47.870;19.006;2022-12-18T01:51:20;47.25;;;21.55;;
41572;SDS011;27286;47.870;19.006;2022-12-18T01:53:46;46.60;;;19.60;;
41572;SDS011;27286;47.870;19.006;2022-12-18T01:56:13;40.83;;;18.55;;
41572;SDS011;27286;47.870;19.006;2022-12-18T02:01:12;46.28;;;21.83;;
41572;SDS011;27286;47.870;19.006;2022-12-18T02:03:40;47.72;;;21.38;;
41572;SDS011;27286;47.870;19.006;2022-12-18T02:08:44;42.30;;;18.50;;
41572;SDS011;27286;47.870;19.006;2022-12-18T02:22:16;36.60;;;16.55;;
41572;SDS011;27286;47.870;19.006;2022-12-18T02:25:19;40.92;;;19.20;;
41572;SDS011;27286;47.870;19.006;2022-12-18T02:27:46;39.78;;;17.45;;
41572;SDS011;27286;47.870;19.006;2022-12-18T02:30:14;43.45;;;18.80;;
41572;SDS011;27286;47.870;19.006;2022-12-18T02:32:41;41.90;;;19.70;;
41572;SDS011;27286;47.870;19.006;2022-12-18T02:35:13;50.05;;;21.88;;
41572;SDS011;27286;47.870;19.006;2022-12-18T02:37:41;47.63;;;21.25;;
41572;SDS011;27286;47.870;19.006;2022-12-18T02:40:09;52.35;;;21.92;;
41572;SDS011;27286;47.870;19.006;2022-12-18T02:42:37;41.83;;;20.58;;
41572;SDS011;27286;47.870;19.006;2022-12-18T02:45:03;52.40;;;23.02;;
41572;SDS011;27286;47.870;19.006;2022-12-18T02:47:30;52.92;;;24.23;;
41572;SDS011;27286;47.870;19.006;2022-12-18T03:00:12;43.40;;;20.85;;
41572;SDS011;27286;47.870;19.006;2022-12-18T03:05:32;44.63;;;18.75;;
41572;SDS011;27286;47.870;19.006;2022-12-18T03:08:03;40.83;;;19.08;;
41572;SDS011;27286;47.870;19.006;2022-12-18T03:10:36;42.20;;;17.13;;
41572;SDS011;27286;47.870;19.006;2022-12-18T03:13:06;44.47;;;19.10;;
41572;SDS011;27286;47.870;19.006;2022-12-18T03:15:42;42.80;;;18.30;;
41572;SDS011;27286;47.870;19.006;2022-12-18T03:18:13;40.50;;;17.58;;
41572;SDS011;27286;47.870;19.006;2022-12-18T03:20:44;39.92;;;18.40;;
41572;SDS011;27286;47.870;19.006;2022-12-18T03:23:14;35.45;;;16.77;;
41572;SDS011;27286;47.870;19.006;2022-12-18T03:25:43;33.25;;;16.20;;
41572;SDS011;27286;47.870;19.006;2022-12-18T03:28:12;38.35;;;16.45;;
41572;SDS011;27286;47.870;19.006;2022-12-18T03:30:41;37.33;;;16.35;;
41572;SDS011;27286;47.870;19.006;2022-12-18T03:35:56;40.38;;;19.02;;
41572;SDS011;27286;47.870;19.006;2022-12-18T03:38:22;52.22;;;22.55;;
41572;SDS011;27286;47.870;19.006;2022-12-18T03:43:50;57.22;;;24.00;;
41572;SDS011;27286;47.870;19.006;2022-12-18T03:46:28;55.42;;;26.13;;
41572;SDS011;27286;47.870;19.006;2022-12-18T03:54:24;45.13;;;20.80;;
41572;SDS011;27286;47.870;19.006;2022-12-18T03:57:02;38.95;;;18.80;;
41572;SDS011;27286;47.870;19.006;2022-12-18T03:59:32;43.13;;;18.85;;
41572;SDS011;27286;47.870;19.006;2022-12-18T04:01:59;40.40;;;17.80;;
41572;SDS011;27286;47.870;19.006;2022-12-18T04:04:27;45.92;;;20.48;;
41572;SDS011;27286;47.870;19.006;2022-12-18T04:06:53;40.80;;;19.38;;
41572;SDS011;27286;47.870;19.006;2022-12-18T04:09:20;46.47;;;20.60;;
41572;SDS011;27286;47.870;19.006;2022-12-18T04:11:46;52.38;;;21.17;;
41572;SDS011;27286;47.870;19.006;2022-12-18T04:14:12;45.90;;;20.92;;
41572;SDS011;27286;47.870;19.006;2022-12-18T04:16:38;38.17;;;19.30;;
41572;SDS011;27286;47.870;19.006;2022-12-18T04:19:04;41.85;;;19.25;;
41572;SDS011;27286;47.870;19.006;2022-12-18T04:21:30;36.75;;;18.13;;
41572;SDS011;27286;47.870;19.006;2022-12-18T04:23:55;40.35;;;19.02;;
41572;SDS011;27286;47.870;19.006;2022-12-18T04:26:20;40.67;;;17.85;;
41572;SDS011;27286;47.870;19.006;2022-12-18T04:28:46;36.60;;;16.40;;
41572;SDS011;27286;47.870;19.006;2022-12-18T04:31:12;41.33;;;16.58;;
41572;SDS011;27286;47.870;19.006;2022-12-18T04:33:37;36.47;;;17.65;;
41572;SDS011;27286;47.870;19.006;2022-12-18T04:36:03;38.70;;;17.63;;
41572;SDS011;27286;47.870;19.006;2022-12-18T04:38:29;41.88;;;17.77;;
41572;SDS011;27286;47.870;19.006;2022-12-18T04:40:54;40.55;;;19.25;;
41572;SDS011;27286;47.870;19.006;2022-12-18T04:43:20;35.72;;;17.17;;
41572;SDS011;27286;47.870;19.006;2022-12-18T04:45:45;41.28;;;18.83;;
41572;SDS011;27286;47.870;19.006;2022-12-18T04:48:11;40.83;;;18.45;;
41572;SDS011;27286;47.870;19.006;2022-12-18T04:50:36;42.80;;;20.00;;
41572;SDS011;27286;47.870;19.006;2022-12-18T04:53:01;41.72;;;19.30;;
41572;SDS011;27286;47.870;19.006;2022-12-18T04:55:27;47.50;;;20.95;;
41572;SDS011;27286;47.870;19.006;2022-12-18T04:57:52;45.33;;;20.83;;
41572;SDS011;27286;47.870;19.006;2022-12-18T05:00:18;40.42;;;17.90;;
41572;SDS011;27286;47.870;19.006;2022-12-18T05:02:43;49.30;;;21.50;;
41572;SDS011;27286;47.870;19.006;2022-12-18T05:05:09;41.67;;;18.40;;
41572;SDS011;27286;47.870;19.006;2022-12-18T05:07:35;44.08;;;19.15;;
41572;SDS011;27286;47.870;19.006;2022-12-18T05:10:00;38.08;;;17.40;;
41572;SDS011;27286;47.870;19.006;2022-12-18T05:12:25;38.40;;;16.33;;
41572;SDS011;27286;47.870;19.006;2022-12-18T05:14:51;38.65;;;16.60;;
41572;SDS011;27286;47.870;19.006;2022-12-18T05:17:16;36.85;;;17.52;;
41572;SDS011;27286;47.870;19.006;2022-12-18T05:19:42;43.90;;;18.25;;
41572;SDS011;27286;47.870;19.006;2022-12-18T05:22:07;42.40;;;18.42;;
41572;SDS011;27286;47.870;19.006;2022-12-18T05:24:33;39.35;;;18.65;;
41572;SDS011;27286;47.870;19.006;2022-12-18T05:26:59;41.78;;;18.25;;
41572;SDS011;27286;47.870;19.006;2022-12-18T05:29:25;38.40;;;18.00;;
41572;SDS011;27286;47.870;19.006;2022-12-18T05:31:50;43.88;;;19.10;;
41572;SDS011;27286;47.870;19.006;2022-12-18T05:34:15;39.70;;;17.35;;
41572;SDS011;27286;47.870;19.006;2022-12-18T05:36:41;39.17;;;18.52;;
41572;SDS011;27286;47.870;19.006;2022-12-18T05:39:07;40.00;;;18.02;;
41572;SDS011;27286;47.870;19.006;2022-12-18T05:41:32;41.20;;;18.02;;
41572;SDS011;27286;47.870;19.006;2022-12-18T05:43:58;43.95;;;19.45;;
41572;SDS011;27286;47.870;19.006;2022-12-18T05:46:24;41.35;;;18.50;;
41572;SDS011;27286;47.870;19.006;2022-12-18T05:48:49;49.00;;;22.35;;
41572;SDS011;27286;47.870;19.006;2022-12-18T05:51:16;43.47;;;18.58;;
41572;SDS011;27286;47.870;19.006;2022-12-18T05:53:44;43.10;;;18.42;;
41572;SDS011;27286;47.870;19.006;2022-12-18T05:56:11;42.75;;;20.88;;
41572;SDS011;27286;47.870;19.006;2022-12-18T05:58:39;53.92;;;23.02;;
41572;SDS011;27286;47.870;19.006;2022-12-18T06:01:08;58.28;;;26.65;;
41572;SDS011;27286;47.870;19.006;2022-12-18T06:03:38;55.67;;;27.50;;
41572;SDS011;27286;47.870;19.006;2022-12-18T06:06:11;63.75;;;29.98;;
41572;SDS011;27286;47.870;19.006;2022-12-18T06:08:38;63.25;;;29.80;;
41572;SDS011;27286;47.870;19.006;2022-12-18T06:11:03;55.03;;;24.75;;
41572;SDS011;27286;47.870;19.006;2022-12-18T06:13:29;40.28;;;21.83;;
41572;SDS011;27286;47.870;19.006;2022-12-18T06:15:54;38.75;;;17.50;;
41572;SDS011;27286;47.870;19.006;2022-12-18T06:18:20;47.50;;;17.92;;
41572;SDS011;27286;47.870;19.006;2022-12-18T06:20:51;38.25;;;18.10;;
41572;SDS011;27286;47.870;19.006;2022-12-18T06:23:19;40.70;;;16.92;;
41572;SDS011;27286;47.870;19.006;2022-12-18T06:25:45;39.67;;;18.17;;
41572;SDS011;27286;47.870;19.006;2022-12-18T06:28:10;32.35;;;15.30;;
41572;SDS011;27286;47.870;19.006;2022-12-18T06:30:36;40.03;;;17.40;;
41572;SDS011;27286;47.870;19.006;2022-12-18T06:33:01;38.60;;;16.90;;
41572;SDS011;27286;47.870;19.006;2022-12-18T06:35:26;39.45;;;17.10;;
41572;SDS011;27286;47.870;19.006;2022-12-18T06:37:52;43.53;;;18.50;;
41572;SDS011;27286;47.870;19.006;2022-12-18T06:40:17;39.63;;;17.65;;
41572;SDS011;27286;47.870;19.006;2022-12-18T06:42:43;40.70;;;18.25;;
41572;SDS011;27286;47.870;19.006;2022-12-18T06:45:08;49.33;;;19.80;;
41572;SDS011;27286;47.870;19.006;2022-12-18T06:47:34;44.17;;;18.60;;
41572;SDS011;27286;47.870;19.006;2022-12-18T06:49:59;46.33;;;17.40;;
41572;SDS011;27286;47.870;19.006;2022-12-18T06:52:25;41.92;;;18.70;;
41572;SDS011;27286;47.870;19.006;2022-12-18T06:54:50;40.30;;;18.95;;
41572;SDS011;27286;47.870;19.006;2022-12-18T06:57:16;44.28;;;20.35;;
41572;SDS011;27286;47.870;19.006;2022-12-18T06:59:41;53.15;;;22.17;;
41572;SDS011;27286;47.870;19.006;2022-12-18T07:02:09;46.00;;;19.23;;
41572;SDS011;27286;47.870;19.006;2022-12-18T07:04:36;43.38;;;20.25;;
41572;SDS011;27286;47.870;19.006;2022-12-18T07:07:02;45.78;;;20.90;;
41572;SDS011;27286;47.870;19.006;2022-12-18T07:09:27;54.05;;;24.80;;
41572;SDS011;27286;47.870;19.006;2022-12-18T07:11:52;56.10;;;26.25;;
41572;SDS011;27286;47.870;19.006;2022-12-18T07:14:18;82.97;;;43.33;;
41572;SDS011;27286;47.870;19.006;2022-12-18T07:16:43;95.15;;;45.83;;
41572;SDS011;27286;47.870;19.006;2022-12-18T07:19:09;81.35;;;38.65;;
41572;SDS011;27286;47.870;19.006;2022-12-18T07:21:34;70.63;;;34.67;;
41572;SDS011;27286;47.870;19.006;2022-12-18T07:24:00;68.32;;;33.20;;
41572;SDS011;27286;47.870;19.006;2022-12-18T07:26:25;68.63;;;33.70;;
41572;SDS011;27286;47.870;19.006;2022-12-18T07:28:53;61.72;;;27.70;;
41572;SDS011;27286;47.870;19.006;2022-12-18T07:31:20;49.60;;;25.80;;
41572;SDS011;27286;47.870;19.006;2022-12-18T07:33:47;45.25;;;21.42;;
41572;SDS011;27286;47.870;19.006;2022-12-18T07:36:13;47.85;;;23.23;;
41572;SDS011;27286;47.870;19.006;2022-12-18T07:38:38;49.60;;;22.75;;
41572;SDS011;27286;47.870;19.006;2022-12-18T07:41:05;51.10;;;22.73;;
41572;SDS011;27286;47.870;19.006;2022-12-18T07:43:35;44.08;;;23.20;;
41572;SDS011;27286;47.870;19.006;2022-12-18T07:46:01;51.08;;;24.15;;
41572;SDS011;27286;47.870;19.006;2022-12-18T07:48:27;45.88;;;23.10;;
41572;SDS011;27286;47.870;19.006;2022-12-18T07:50:53;44.47;;;23.25;;
41572;SDS011;27286;47.870;19.006;2022-12-18T07:53:18;45.80;;;22.75;;
41572;SDS011;27286;47.870;19.006;2022-12-18T07:55:44;41.42;;;22.95;;
41572;SDS011;27286;47.870;19.006;2022-12-18T07:58:09;47.53;;;23.55;;
41572;SDS011;27286;47.870;19.006;2022-12-18T08:00:35;48.20;;;26.42;;
41572;SDS011;27286;47.870;19.006;2022-12-18T08:03:00;44.45;;;24.50;;
41572;SDS011;27286;47.870;19.006;2022-12-18T08:05:26;53.42;;;28.70;;
41572;SDS011;27286;47.870;19.006;2022-12-18T08:07:52;48.67;;;30.52;;
41572;SDS011;27286;47.870;19.006;2022-12-18T08:10:19;55.17;;;32.80;;
41572;SDS011;27286;47.870;19.006;2022-12-18T08:12:44;84.97;;;51.45;;
41572;SDS011;27286;47.870;19.006;2022-12-18T08:15:10;70.50;;;45.13;;
41572;SDS011;27286;47.870;19.006;2022-12-18T08:17:36;69.15;;;42.35;;
41572;SDS011;27286;47.870;19.006;2022-12-18T08:20:01;58.05;;;37.22;;
41572;SDS011;27286;47.870;19.006;2022-12-18T08:22:27;53.88;;;34.47;;
41572;SDS011;27286;47.870;19.006;2022-12-18T08:24:52;45.03;;;28.10;;
41572;SDS011;27286;47.870;19.006;2022-12-18T08:27:17;54.97;;;34.05;;
41572;SDS011;27286;47.870;19.006;2022-12-18T08:29:43;48.15;;;28.85;;
41572;SDS011;27286;47.870;19.006;2022-12-18T08:32:09;45.60;;;27.55;;
41572;SDS011;27286;47.870;19.006;2022-12-18T08:34:35;47.83;;;27.85;;
41572;SDS011;27286;47.870;19.006;2022-12-18T08:37:00;42.97;;;26.38;;
41572;SDS011;27286;47.870;19.006;2022-12-18T08:39:26;51.55;;;29.75;;
41572;SDS011;27286;47.870;19.006;2022-12-18T08:41:51;52.88;;;29.95;;
41572;SDS011;27286;47.870;19.006;2022-12-18T08:44:35;63.58;;;32.40;;
41572;SDS011;27286;47.870;19.006;2022-12-18T08:47:04;66.47;;;32.83;;
41572;SDS011;27286;47.870;19.006;2022-12-18T08:49:30;61.78;;;32.20;;
41572;SDS011;27286;47.870;19.006;2022-12-18T08:51:56;60.58;;;29.83;;
41572;SDS011;27286;47.870;19.006;2022-12-18T08:54:24;59.10;;;32.78;;
41572;SDS011;27286;47.870;19.006;2022-12-18T08:56:50;56.63;;;30.70;;
41572;SDS011;27286;47.870;19.006;2022-12-18T08:59:16;54.88;;;28.73;;
41572;SDS011;27286;47.870;19.006;2022-12-18T09:01:42;48.22;;;28.17;;
41572;SDS011;27286;47.870;19.006;2022-12-18T09:04:08;48.85;;;28.13;;
41572;SDS011;27286;47.870;19.006;2022-12-18T09:06:34;46.63;;;27.15;;
41572;SDS011;27286;47.870;19.006;2022-12-18T09:08:59;49.85;;;28.75;;
41572;SDS011;27286;47.870;19.006;2022-12-18T09:11:25;51.75;;;28.70;;
41572;SDS011;27286;47.870;19.006;2022-12-18T09:13:52;47.67;;;27.83;;
41572;SDS011;27286;47.870;19.006;2022-12-18T09:16:19;55.17;;;32.47;;
41572;SDS011;27286;47.870;19.006;2022-12-18T09:18:45;56.35;;;33.38;;
41572;SDS011;27286;47.870;19.006;2022-12-18T09:21:11;54.40;;;31.75;;
41572;SDS011;27286;47.870;19.006;2022-12-18T09:23:41;54.40;;;31.73;;
41572;SDS011;27286;47.870;19.006;2022-12-18T09:26:07;53.33;;;32.03;;
41572;SDS011;27286;47.870;19.006;2022-12-18T09:28:33;44.97;;;28.00;;
41572;SDS011;27286;47.870;19.006;2022-12-18T09:31:03;50.05;;;28.60;;
41572;SDS011;27286;47.870;19.006;2022-12-18T09:33:31;46.35;;;28.23;;
41572;SDS011;27286;47.870;19.006;2022-12-18T09:35:56;59.80;;;33.33;;
41572;SDS011;27286;47.870;19.006;2022-12-18T09:38:21;50.80;;;30.05;;
41572;SDS011;27286;47.870;19.006;2022-12-18T09:40:49;52.75;;;30.67;;
41572;SDS011;27286;47.870;19.006;2022-12-18T09:43:18;44.35;;;26.00;;
41572;SDS011;27286;47.870;19.006;2022-12-18T09:49:15;45.72;;;27.77;;
41572;SDS011;27286;47.870;19.006;2022-12-18T09:51:45;46.22;;;27.77;;
41572;SDS011;27286;47.870;19.006;2022-12-18T09:54:18;48.15;;;28.55;;
41572;SDS011;27286;47.870;19.006;2022-12-18T09:56:47;49.75;;;30.88;;
41572;SDS011;27286;47.870;19.006;2022-12-18T10:02:20;54.28;;;35.05;;
41572;SDS011;27286;47.870;19.006;2022-12-18T10:04:51;57.53;;;36.72;;
41572;SDS011;27286;47.870;19.006;2022-12-18T10:12:59;45.08;;;28.45;;
41572;SDS011;27286;47.870;19.006;2022-12-18T10:18:41;47.40;;;32.88;;
41572;SDS011;27286;47.870;19.006;2022-12-18T10:21:11;44.15;;;29.20;;
41572;SDS011;27286;47.870;19.006;2022-12-18T10:26:38;48.92;;;31.55;;
41572;SDS011;27286;47.870;19.006;2022-12-18T10:29:12;49.80;;;33.03;;
41572;SDS011;27286;47.870;19.006;2022-12-18T10:31:39;46.30;;;31.60;;
41572;SDS011;27286;47.870;19.006;2022-12-18T10:34:08;48.60;;;31.67;;
41572;SDS011;27286;47.870;19.006;2022-12-18T10:36:35;45.08;;;30.40;;
41572;SDS011;27286;47.870;19.006;2022-12-18T10:41:47;42.63;;;29.10;;
41572;SDS011;27286;47.870;19.006;2022-12-18T10:44:20;46.63;;;31.50;;
41572;SDS011;27286;47.870;19.006;2022-12-18T10:46:50;47.38;;;30.65;;
41572;SDS011;27286;47.870;19.006;2022-12-18T10:49:24;46.92;;;31.75;;
41572;SDS011;27286;47.870;19.006;2022-12-18T10:54:47;40.10;;;28.73;;
41572;SDS011;27286;47.870;19.006;2022-12-18T10:57:29;44.83;;;31.52;;
41572;SDS011;27286;47.870;19.006;2022-12-18T10:59:55;44.83;;;30.63;;
41572;SDS011;27286;47.870;19.006;2022-12-18T11:02:35;42.50;;;30.92;;
41572;SDS011;27286;47.870;19.006;2022-12-18T11:05:02;46.75;;;28.65;;
41572;SDS011;27286;47.870;19.006;2022-12-18T11:07:49;41.42;;;28.55;;
41572;SDS011;27286;47.870;19.006;2022-12-18T11:10:18;40.15;;;28.58;;
41572;SDS011;27286;47.870;19.006;2022-12-18T11:12:45;43.97;;;29.42;;
41572;SDS011;27286;47.870;19.006;2022-12-18T11:15:15;42.47;;;29.17;;
41572;SDS011;27286;47.870;19.006;2022-12-18T11:17:44;45.58;;;31.73;;
41572;SDS011;27286;47.870;19.006;2022-12-18T11:20:20;47.13;;;29.27;;
41572;SDS011;27286;47.870;19.006;2022-12-18T11:23:04;43.85;;;27.50;;
41572;SDS011;27286;47.870;19.006;2022-12-18T11:25:35;78.13;;;53.45;;
41572;SDS011;27286;47.870;19.006;2022-12-18T11:28:03;82.53;;;56.15;;
41572;SDS011;27286;47.870;19.006;2022-12-18T11:30:31;44.03;;;29.27;;
41572;SDS011;27286;47.870;19.006;2022-12-18T11:33:12;49.42;;;32.60;;
41572;SDS011;27286;47.870;19.006;2022-12-18T11:38:37;42.67;;;26.48;;
41572;SDS011;27286;47.870;19.006;2022-12-18T11:44:10;44.38;;;26.00;;
41572;SDS011;27286;47.870;19.006;2022-12-18T11:49:52;39.72;;;25.00;;
41572;SDS011;27286;47.870;19.006;2022-12-18T11:54:51;44.58;;;28.73;;
41572;SDS011;27286;47.870;19.006;2022-12-18T11:57:38;46.38;;;30.20;;
41572;SDS011;27286;47.870;19.006;2022-12-18T12:00:31;45.40;;;30.17;;
41572;SDS011;27286;47.870;19.006;2022-12-18T12:08:36;41.33;;;29.63;;
41572;SDS011;27286;47.870;19.006;2022-12-18T12:16:31;38.80;;;27.42;;
41572;SDS011;27286;47.870;19.006;2022-12-18T12:19:15;39.95;;;26.45;;
41572;SDS011;27286;47.870;19.006;2022-12-18T12:21:53;40.45;;;27.17;;
41572;SDS011;27286;47.870;19.006;2022-12-18T12:30:04;47.63;;;29.52;;
41572;SDS011;27286;47.870;19.006;2022-12-18T12:32:50;41.38;;;27.15;;
41572;SDS011;27286;47.870;19.006;2022-12-18T12:43:31;50.08;;;30.63;;
41572;SDS011;27286;47.870;19.006;2022-12-18T12:46:05;41.20;;;27.35;;
41572;SDS011;27286;47.870;19.006;2022-12-18T12:48:34;43.75;;;29.35;;
41572;SDS011;27286;47.870;19.006;2022-12-18T12:51:08;43.70;;;30.52;;
41572;SDS011;27286;47.870;19.006;2022-12-18T12:53:37;43.10;;;28.33;;
41572;SDS011;27286;47.870;19.006;2022-12-18T12:56:04;48.40;;;32.42;;
41572;SDS011;27286;47.870;19.006;2022-12-18T13:01:04;34.63;;;23.65;;
41572;SDS011;27286;47.870;19.006;2022-12-18T13:03:47;36.58;;;23.15;;
41572;SDS011;27286;47.870;19.006;2022-12-18T13:06:35;28.48;;;21.00;;
41572;SDS011;27286;47.870;19.006;2022-12-18T13:09:08;30.00;;;20.13;;
41572;SDS011;27286;47.870;19.006;2022-12-18T13:14:37;35.20;;;19.70;;
41572;SDS011;27286;47.870;19.006;2022-12-18T13:17:22;33.30;;;23.00;;
41572;SDS011;27286;47.870;19.006;2022-12-18T13:20:10;34.75;;;23.45;;
41572;SDS011;27286;47.870;19.006;2022-12-18T13:22:42;30.63;;;19.23;;
41572;SDS011;27286;47.870;19.006;2022-12-18T13:27:59;30.20;;;19.95;;
41572;SDS011;27286;47.870;19.006;2022-12-18T13:45:50;36.88;;;21.80;;
41572;SDS011;27286;47.870;19.006;2022-12-18T13:48:24;37.25;;;23.10;;
41572;SDS011;27286;47.870;19.006;2022-12-18T13:50:59;31.17;;;20.33;;
41572;SDS011;27286;47.870;19.006;2022-12-18T13:53:50;39.30;;;23.65;;
41572;SDS011;27286;47.870;19.006;2022-12-18T13:56:17;49.08;;;26.00;;
41572;SDS011;27286;47.870;19.006;2022-12-18T13:58:46;47.00;;;26.80;;
41572;SDS011;27286;47.870;19.006;2022-12-18T14:01:29;45.47;;;27.15;;
41572;SDS011;27286;47.870;19.006;2022-12-18T14:04:11;45.50;;;24.27;;
41572;SDS011;27286;47.870;19.006;2022-12-18T14:06:42;44.38;;;26.90;;
41572;SDS011;27286;47.870;19.006;2022-12-18T14:09:12;38.95;;;22.05;;
41572;SDS011;27286;47.870;19.006;2022-12-18T14:11:40;46.38;;;26.58;;
41572;SDS011;27286;47.870;19.006;2022-12-18T14:14:12;44.85;;;24.83;;
41572;SDS011;27286;47.870;19.006;2022-12-18T14:16:40;51.20;;;31.17;;
41572;SDS011;27286;47.870;19.006;2022-12-18T14:19:08;56.60;;;29.33;;
41572;SDS011;27286;47.870;19.006;2022-12-18T14:21:39;48.17;;;27.27;;
41572;SDS011;27286;47.870;19.006;2022-12-18T14:24:15;56.63;;;29.90;;
41572;SDS011;27286;47.870;19.006;2022-12-18T14:26:46;63.13;;;35.08;;
41572;SDS011;27286;47.870;19.006;2022-12-18T14:29:20;54.28;;;30.73;;
41572;SDS011;27286;47.870;19.006;2022-12-18T14:37:14;58.08;;;32.75;;
41572;SDS011;27286;47.870;19.006;2022-12-18T14:40:19;63.75;;;35.65;;
41572;SDS011;27286;47.870;19.006;2022-12-18T14:42:38;56.22;;;32.78;;
41572;SDS011;27286;47.870;19.006;2022-12-18T14:47:58;96.13;;;51.38;;
41572;SDS011;27286;47.870;19.006;2022-12-18T14:50:25;60.45;;;34.88;;
41572;SDS011;27286;47.870;19.006;2022-12-18T14:52:51;66.28;;;35.72;;
41572;SDS011;27286;47.870;19.006;2022-12-18T14:55:17;87.88;;;48.13;;
41572;SDS011;27286;47.870;19.006;2022-12-18T15:00:21;42.63;;;22.65;;
41572;SDS011;27286;47.870;19.006;2022-12-18T15:02:50;43.67;;;21.40;;
41572;SDS011;27286;47.870;19.006;2022-12-18T15:28:46;37.55;;;18.13;;
41572;SDS011;27286;47.870;19.006;2022-12-18T15:36:16;36.15;;;16.83;;
41572;SDS011;27286;47.870;19.006;2022-12-18T15:39:02;42.03;;;20.83;;
41572;SDS011;27286;47.870;19.006;2022-12-18T15:41:30;52.22;;;26.65;;
41572;SDS011;27286;47.870;19.006;2022-12-18T15:44:00;70.15;;;34.42;;
41572;SDS011;27286;47.870;19.006;2022-12-18T15:46:26;86.65;;;40.50;;
41572;SDS011;27286;47.870;19.006;2022-12-18T15:48:55;47.60;;;24.58;;
41572;SDS011;27286;47.870;19.006;2022-12-18T16:09:28;45.17;;;23.15;;
41572;SDS011;27286;47.870;19.006;2022-12-18T16:11:54;46.10;;;22.42;;
41572;SDS011;27286;47.870;19.006;2022-12-18T16:14:28;46.88;;;22.05;;
41572;SDS011;27286;47.870;19.006;2022-12-18T16:16:56;46.87;;;21.80;;
41572;SDS011;27286;47.870;19.006;2022-12-18T16:27:09;45.47;;;22.23;;
41572;SDS011;27286;47.870;19.006;2022-12-18T16:29:35;47.17;;;23.17;;
41572;SDS011;27286;47.870;19.006;2022-12-18T16:34:37;46.20;;;20.88;;
41572;SDS011;27286;47.870;19.006;2022-12-18T16:44:46;47.55;;;22.48;;
41572;SDS011;27286;47.870;19.006;2022-12-18T16:47:13;55.10;;;24.15;;
41572;SDS011;27286;47.870;19.006;2022-12-18T16:49:39;51.92;;;26.13;;
41572;SDS011;27286;47.870;19.006;2022-12-18T16:52:05;49.42;;;24.33;;
41572;SDS011;27286;47.870;19.006;2022-12-18T16:54:32;49.42;;;23.27;;
41572;SDS011;27286;47.870;19.006;2022-12-18T16:57:00;50.90;;;24.45;;
41572;SDS011;27286;47.870;19.006;2022-12-18T16:59:29;51.10;;;26.40;;
41572;SDS011;27286;47.870;19.006;2022-12-18T17:01:56;50.88;;;24.13;;
41572;SDS011;27286;47.870;19.006;2022-12-18T17:04:22;48.15;;;23.02;;
41572;SDS011;27286;47.870;19.006;2022-12-18T17:06:49;43.55;;;21.98;;
41572;SDS011;27286;47.870;19.006;2022-12-18T17:09:18;49.88;;;20.77;;
41572;SDS011;27286;47.870;19.006;2022-12-18T17:11:48;39.55;;;20.92;;
41572;SDS011;27286;47.870;19.006;2022-12-18T17:14:17;47.25;;;20.50;;
41572;SDS011;27286;47.870;19.006;2022-12-18T17:16:45;43.97;;;20.25;;
41572;SDS011;27286;47.870;19.006;2022-12-18T17:19:12;44.35;;;21.50;;
41572;SDS011;27286;47.870;19.006;2022-12-18T17:21:58;46.33;;;21.40;;
41572;SDS011;27286;47.870;19.006;2022-12-18T17:29:29;55.92;;;26.45;;
41572;SDS011;27286;47.870;19.006;2022-12-18T17:31:55;59.90;;;28.33;;
41572;SDS011;27286;47.870;19.006;2022-12-18T17:34:22;57.45;;;28.17;;
41572;SDS011;27286;47.870;19.006;2022-12-18T17:41:58;47.17;;;20.60;;
41572;SDS011;27286;47.870;19.006;2022-12-18T17:44:24;44.42;;;20.65;;
41572;SDS011;27286;47.870;19.006;2022-12-18T18:18:48;57.70;;;26.95;;